Time;durP1;ratioP1;P1;durP2;ratioP2;P2;SDS_P1;SDS_P2;PMS_P1;PMS_P2;Temp;Humidity;BMP_temperature;BMP_pressure;BME280_temperature;BME280_humidity;BME280_pressure;Samples;Min_cycle;Max_cycle;Signal;HPM_P1;HPM_P2
2020/12/25 00:02:16;;;;;;;5.10;4.53;;;18.00;28.90;;;;;;5113557;28;20177;-60
2020/12/25 00:04:42;;;;;;;5.73;4.40;;;18.00;28.90;;;;;;5096168;28;20177;-59
2020/12/25 00:07:08;;;;;;;7.33;4.53;;;18.00;28.90;;;;;;5113467;28;20167;-60
2020/12/25 00:09:33;;;;;;;5.53;4.60;;;18.00;28.90;;;;;;5114055;28;20180;-60
2020/12/25 00:11:59;;;;;;;6.33;5.20;;;18.00;28.90;;;;;;5113687;28;20607;-60
2020/12/25 00:14:25;;;;;;;6.03;5.10;;;17.90;28.90;;;;;;5113720;28;20870;-60
2020/12/25 00:16:50;;;;;;;6.27;4.50;;;17.90;28.90;;;;;;5113645;28;20605;-59
2020/12/25 00:19:16;;;;;;;5.70;4.83;;;17.90;28.90;;;;;;5113796;28;20161;-60
2020/12/25 00:21:42;;;;;;;6.57;4.90;;;17.90;28.90;;;;;;5095457;28;20208;-60
2020/12/25 00:24:08;;;;;;;4.90;4.43;;;17.90;28.90;;;;;;5113284;28;20157;-60
2020/12/25 00:26:35;;;;;;;5.82;3.88;;;17.90;28.90;;;;;;5095647;28;20620;-60
2020/12/25 00:29:03;;;;;;;4.90;4.50;;;17.90;28.90;;;;;;5113750;28;20165;-60
2020/12/25 00:31:34;;;;;;;9.43;5.20;;;17.90;28.90;;;;;;5113490;28;20184;-60
2020/12/25 00:34:04;;;;;;;5.90;5.30;;;17.90;28.90;;;;;;5113501;28;20294;-60
2020/12/25 00:36:40;;;;;;;5.80;4.10;;;17.90;29.50;;;;;;5113624;28;20154;-59
2020/12/25 00:39:08;;;;;;;5.45;4.55;;;17.90;28.90;;;;;;5113652;28;20153;-60
2020/12/25 00:41:34;;;;;;;6.63;5.07;;;17.90;28.90;;;;;;5117570;28;20481;-60
2020/12/25 00:44:00;;;;;;;5.85;4.60;;;17.90;29.00;;;;;;5117428;28;20202;-59
2020/12/25 00:46:26;;;;;;;5.70;4.88;;;17.90;28.90;;;;;;5099136;28;20165;-60
2020/12/25 00:48:53;;;;;;;4.70;4.20;;;17.90;28.90;;;;;;5117300;28;20153;-60
2020/12/25 00:51:21;;;;;;;4.80;4.20;;;17.90;28.90;;;;;;5117138;28;20217;-60
2020/12/25 00:53:47;;;;;;;5.32;3.95;;;17.90;29.00;;;;;;5116712;28;20228;-60
2020/12/25 00:56:14;;;;;;;4.95;4.45;;;17.90;28.90;;;;;;5114556;28;20165;-60
2020/12/25 00:58:40;;;;;;;4.75;4.35;;;17.90;29.00;;;;;;5117170;28;20161;-60
2020/12/25 01:01:07;;;;;;;6.80;4.78;;;17.90;29.00;;;;;;5117027;28;20295;-60
2020/12/25 01:03:33;;;;;;;5.57;5.00;;;17.90;29.00;;;;;;5117066;28;20157;-60
2020/12/25 01:05:59;;;;;;;4.63;3.80;;;17.90;29.00;;;;;;5117100;28;20164;-60
2020/12/25 01:08:24;;;;;;;4.60;4.20;;;17.90;29.00;;;;;;5116447;28;20161;-60
2020/12/25 01:10:50;;;;;;;5.30;4.80;;;17.90;29.00;;;;;;5098873;28;20643;-59
2020/12/25 01:13:17;;;;;;;5.97;5.37;;;17.90;29.00;;;;;;5116675;28;20161;-60
2020/12/25 01:15:42;;;;;;;6.15;4.72;;;17.90;29.00;;;;;;5116860;28;20274;-60
2020/12/25 01:18:09;;;;;;;5.93;4.40;;;17.90;29.10;;;;;;5116743;28;20636;-59
2020/12/25 01:20:35;;;;;;;4.30;3.90;;;17.90;29.00;;;;;;5116786;28;20195;-60
2020/12/25 01:23:03;;;;;;;5.38;4.85;;;17.90;29.10;;;;;;5116322;28;20166;-60
2020/12/25 01:25:28;;;;;;;6.82;5.75;;;17.90;29.10;;;;;;5116624;28;20157;-60
2020/12/25 01:27:54;;;;;;;4.93;4.43;;;17.90;29.10;;;;;;5116544;28;20295;-60
2020/12/25 01:30:19;;;;;;;4.80;4.30;;;17.90;29.10;;;;;;5116847;28;20192;-60
2020/12/25 01:32:45;;;;;;;5.50;4.40;;;17.90;29.10;;;;;;5116474;28;20169;-60
2020/12/25 01:35:11;;;;;;;5.27;4.73;;;17.90;29.10;;;;;;5116387;28;20198;-60
2020/12/25 01:37:40;;;;;;;5.40;4.50;;;17.90;29.10;;;;;;5115853;28;20616;-60
2020/12/25 01:40:06;;;;;;;6.03;5.43;;;17.90;29.10;;;;;;5116482;28;20246;-59
2020/12/25 01:42:34;;;;;;;5.37;4.87;;;17.90;29.10;;;;;;5116130;28;20244;-60
2020/12/25 01:45:00;;;;;;;6.40;4.75;;;17.90;29.10;;;;;;5116404;28;20407;-59
2020/12/25 01:47:26;;;;;;;6.30;5.28;;;17.90;29.10;;;;;;5116318;28;20145;-60
2020/12/25 01:49:52;;;;;;;5.03;4.53;;;17.80;29.00;;;;;;5115846;28;20236;-60
2020/12/25 01:52:19;;;;;;;5.80;5.20;;;17.90;29.10;;;;;;5115634;28;20208;-60
2020/12/25 01:54:46;;;;;;;6.20;5.40;;;17.90;29.10;;;;;;5116257;28;20222;-60
2020/12/25 01:57:13;;;;;;;6.32;4.85;;;17.80;29.00;;;;;;5115533;28;20177;-60
2020/12/25 01:59:42;;;;;;;5.65;4.63;;;17.90;29.10;;;;;;5116086;28;20152;-60
2020/12/25 02:02:08;;;;;;;6.00;4.40;;;17.90;29.10;;;;;;5115867;28;20157;-60
2020/12/25 02:04:34;;;;;;;6.30;4.75;;;17.90;29.10;;;;;;5115838;28;20627;-60
2020/12/25 02:07:00;;;;;;;7.45;4.20;;;17.90;29.10;;;;;;5097070;28;20173;-60
2020/12/25 02:09:26;;;;;;;5.07;4.53;;;17.80;29.00;;;;;;5116039;28;20168;-59
2020/12/25 02:11:53;;;;;;;5.20;4.70;;;17.80;29.00;;;;;;5115507;28;20676;-59
2020/12/25 02:14:19;;;;;;;6.35;4.93;;;17.80;29.00;;;;;;5115749;28;20613;-60
2020/12/25 02:16:45;;;;;;;5.00;4.45;;;17.80;29.00;;;;;;5132029;27;20173;-60
2020/12/25 02:19:11;;;;;;;5.77;4.23;;;17.80;29.00;;;;;;5115936;28;20162;-60
2020/12/25 02:21:41;;;;;;;6.18;5.22;;;17.80;29.60;;;;;;5115687;28;20149;-60
2020/12/25 02:24:08;;;;;;;6.05;5.25;;;17.80;29.00;;;;;;5115342;28;20267;-60
2020/12/25 02:26:35;;;;;;;5.35;4.72;;;17.80;29.00;;;;;;5114496;27;20554;-60
2020/12/25 02:29:01;;;;;;;5.68;4.70;;;17.80;29.00;;;;;;5097593;28;20157;-60
2020/12/25 02:31:26;;;;;;;4.53;3.97;;;17.80;29.00;;;;;;5115257;28;20202;-60
2020/12/25 02:33:52;;;;;;;6.83;4.60;;;17.80;29.00;;;;;;5115267;28;20160;-60
2020/12/25 02:36:17;;;;;;;5.43;4.93;;;17.80;29.00;;;;;;5097256;28;20524;-60
2020/12/25 02:38:43;;;;;;;5.07;4.57;;;17.80;29.00;;;;;;5114845;28;20158;-59
2020/12/25 02:41:09;;;;;;;5.80;4.43;;;17.80;29.00;;;;;;5115097;28;20543;-60
2020/12/25 02:43:34;;;;;;;6.30;5.70;;;17.80;29.00;;;;;;5115108;28;20162;-60
2020/12/25 02:46:00;;;;;;;4.90;4.07;;;17.80;29.00;;;;;;5115266;28;20529;-60
2020/12/25 02:48:26;;;;;;;5.43;4.60;;;17.80;29.00;;;;;;5115017;28;20530;-60
2020/12/25 02:50:51;;;;;;;7.63;5.47;;;17.80;29.00;;;;;;5114824;28;20227;-60
2020/12/25 02:53:17;;;;;;;4.87;4.40;;;17.80;29.00;;;;;;5114315;28;20286;-60
2020/12/25 02:55:43;;;;;;;6.00;4.60;;;17.80;29.00;;;;;;5096658;28;20188;-60
2020/12/25 02:58:08;;;;;;;5.73;5.17;;;17.80;29.00;;;;;;5114707;28;20173;-60
2020/12/25 03:00:34;;;;;;;5.37;4.87;;;17.80;29.10;;;;;;5114693;28;20165;-60
2020/12/25 03:02:59;;;;;;;5.03;4.50;;;17.80;29.00;;;;;;5095883;28;20157;-60
2020/12/25 03:05:25;;;;;;;6.13;4.60;;;17.80;29.10;;;;;;5114736;28;20145;-60
2020/12/25 03:07:51;;;;;;;4.50;4.10;;;17.80;29.10;;;;;;5095903;28;20173;-60
2020/12/25 03:10:16;;;;;;;6.23;4.90;;;17.80;29.00;;;;;;5096186;28;20652;-60
2020/12/25 03:12:42;;;;;;;5.03;4.20;;;17.80;29.00;;;;;;5114653;28;20154;-60
2020/12/25 03:15:08;;;;;;;5.97;5.37;;;17.80;29.00;;;;;;5096526;28;20157;-60
2020/12/25 03:17:33;;;;;;;4.80;4.30;;;17.80;29.00;;;;;;5114524;28;20513;-60
2020/12/25 03:19:59;;;;;;;5.40;4.90;;;17.80;29.00;;;;;;5114649;28;20157;-60
2020/12/25 03:22:24;;;;;;;5.47;4.53;;;17.80;29.10;;;;;;5114010;28;20165;-60
2020/12/25 03:24:50;;;;;;;5.10;4.50;;;17.80;29.10;;;;;;5114477;28;20608;-61
2020/12/25 03:27:16;;;;;;;6.53;5.60;;;17.80;29.10;;;;;;5114409;28;20153;-61
2020/12/25 03:29:41;;;;;;;6.27;4.83;;;17.80;29.00;;;;;;5114490;28;20174;-60
2020/12/25 03:32:10;;;;;;;7.97;5.97;;;17.80;29.10;;;;;;5114203;28;20221;-61
2020/12/25 03:34:35;;;;;;;7.28;4.80;;;17.80;29.00;;;;;;5114291;28;20165;-61
2020/12/25 03:37:01;;;;;;;5.70;4.70;;;17.80;29.10;;;;;;5095221;28;20501;-60
2020/12/25 03:39:27;;;;;;;6.70;4.90;;;17.80;29.00;;;;;;5096396;28;20346;-60
2020/12/25 03:41:52;;;;;;;7.30;4.37;;;17.80;29.00;;;;;;5095947;28;20264;-61
2020/12/25 03:44:19;;;;;;;5.97;4.77;;;17.80;29.60;;;;;;5114118;28;20630;-60
2020/12/25 03:46:45;;;;;;;5.18;4.60;;;17.80;29.00;;;;;;5079031;28;20184;-60
2020/12/25 03:49:10;;;;;;;7.25;5.13;;;17.80;29.00;;;;;;5114117;28;20161;-60
2020/12/25 03:51:36;;;;;;;5.77;5.17;;;17.80;29.10;;;;;;5114131;28;20699;-61
2020/12/25 03:54:02;;;;;;;5.83;5.23;;;17.80;29.10;;;;;;5113537;28;20607;-61
2020/12/25 03:56:28;;;;;;;9.57;5.05;;;17.80;29.10;;;;;;5114015;28;20169;-60
2020/12/25 03:58:54;;;;;;;6.15;5.32;;;17.80;29.00;;;;;;5113967;28;20163;-60
2020/12/25 04:01:20;;;;;;;6.87;5.00;;;17.80;29.10;;;;;;5114173;28;20248;-60
2020/12/25 04:03:45;;;;;;;4.93;4.43;;;17.80;29.00;;;;;;5114128;28;20507;-60
2020/12/25 04:06:11;;;;;;;4.03;3.73;;;17.80;29.10;;;;;;5095755;28;20931;-60
2020/12/25 04:08:40;;;;;;;5.30;4.70;;;17.80;29.60;;;;;;5095197;28;20668;-60
2020/12/25 04:11:07;;;;;;;6.82;4.93;;;17.80;29.10;;;;;;5095469;28;20200;-61
2020/12/25 04:13:33;;;;;;;4.43;4.03;;;17.80;29.10;;;;;;5115368;28;20160;-60
2020/12/25 04:16:00;;;;;;;5.57;4.53;;;17.80;29.10;;;;;;5100015;28;20153;-60
2020/12/25 04:18:26;;;;;;;5.93;4.70;;;17.80;29.10;;;;;;5117928;28;20413;-60
2020/12/25 04:20:51;;;;;;;5.13;4.50;;;17.80;29.10;;;;;;5099962;28;20162;-61
2020/12/25 04:23:17;;;;;;;5.50;3.90;;;17.80;29.10;;;;;;5099146;28;20157;-60
2020/12/25 04:25:42;;;;;;;5.60;5.10;;;17.80;29.10;;;;;;5117983;28;20605;-60
2020/12/25 04:28:08;;;;;;;5.37;4.87;;;17.80;29.10;;;;;;5117739;28;20165;-60
2020/12/25 04:30:34;;;;;;;6.17;4.73;;;17.80;29.10;;;;;;5082472;28;20200;-60
2020/12/25 04:33:00;;;;;;;4.37;3.97;;;17.80;29.10;;;;;;5117693;28;20399;-60
2020/12/25 04:35:25;;;;;;;4.63;4.10;;;17.80;29.10;;;;;;5117591;28;20177;-60
2020/12/25 04:37:51;;;;;;;5.40;4.67;;;17.80;29.10;;;;;;5117184;28;20161;-61
2020/12/25 04:40:17;;;;;;;6.00;4.87;;;17.80;29.10;;;;;;5099378;28;20520;-60
2020/12/25 04:42:51;;;;;;;5.70;4.77;;;17.80;29.10;;;;;;5099204;28;20200;-60
2020/12/25 04:45:17;;;;;;;5.45;4.55;;;17.80;29.10;;;;;;5117303;28;20399;-61
2020/12/25 04:47:45;;;;;;;6.60;4.50;;;17.70;29.00;;;;;;5117450;28;20189;-61
2020/12/25 04:50:11;;;;;;;5.40;4.40;;;17.80;29.10;;;;;;5117355;28;20278;-60
2020/12/25 04:52:40;;;;;;;4.57;4.17;;;17.80;29.10;;;;;;5116611;28;20279;-61
2020/12/25 04:55:06;;;;;;;4.75;4.10;;;17.80;29.10;;;;;;5117296;28;20252;-60
2020/12/25 04:57:32;;;;;;;4.40;3.70;;;17.80;29.10;;;;;;5117103;28;20180;-60
2020/12/25 04:59:58;;;;;;;5.78;4.63;;;17.80;29.10;;;;;;5117392;28;20177;-60
2020/12/25 05:02:23;;;;;;;4.50;4.10;;;17.70;29.00;;;;;;5116970;28;20545;-60
2020/12/25 05:04:49;;;;;;;5.43;4.70;;;17.70;29.00;;;;;;5117445;28;20422;-60
2020/12/25 05:07:16;;;;;;;6.63;5.73;;;17.80;29.10;;;;;;5116324;28;20610;-60
2020/12/25 05:09:42;;;;;;;4.80;4.30;;;17.70;29.00;;;;;;5117015;28;20154;-60
2020/12/25 05:12:13;;;;;;;5.43;4.80;;;17.80;29.10;;;;;;5098388;28;20205;-60
2020/12/25 05:14:42;;;;;;;7.05;4.90;;;17.70;29.00;;;;;;5116921;28;20145;-60
2020/12/25 05:17:11;;;;;;;5.60;4.50;;;17.80;29.10;;;;;;5116702;28;20157;-60
2020/12/25 05:19:41;;;;;;;5.70;4.93;;;17.80;29.10;;;;;;5116841;28;20177;-60
2020/12/25 05:22:07;;;;;;;4.65;4.10;;;17.70;29.10;;;;;;5116090;28;20544;-60
2020/12/25 05:24:39;;;;;;;7.97;5.20;;;17.70;29.00;;;;;;5116547;28;20202;-60
2020/12/25 05:27:12;;;;;;;5.78;5.18;;;17.70;29.00;;;;;;5116479;28;20168;-60
2020/12/25 05:29:39;;;;;;;5.22;4.72;;;17.70;29.00;;;;;;5116605;28;20616;-60
2020/12/25 05:32:06;;;;;;;5.88;5.15;;;17.70;29.00;;;;;;5116426;28;20230;-60
2020/12/25 05:34:34;;;;;;;4.53;4.13;;;17.70;29.00;;;;;;5116339;28;20157;-60
2020/12/25 05:37:01;;;;;;;4.90;4.18;;;17.70;29.00;;;;;;5115976;28;20195;-60
2020/12/25 05:39:32;;;;;;;5.65;4.45;;;17.70;29.00;;;;;;5116515;28;20581;-60
2020/12/25 05:42:05;;;;;;;5.75;4.90;;;17.70;29.00;;;;;;5098239;28;20157;-60
2020/12/25 05:44:51;;;;;;;5.38;4.88;;;17.70;29.00;;;;;;5116373;28;20180;-60
2020/12/25 05:47:18;;;;;;;5.00;4.35;;;17.70;29.00;;;;;;5115887;28;20268;-60
2020/12/25 05:49:44;;;;;;;5.45;4.93;;;17.70;29.00;;;;;;5116249;28;20506;-60
2020/12/25 05:52:12;;;;;;;5.20;4.68;;;17.70;29.00;;;;;;5115543;28;20281;-60
2020/12/25 05:54:41;;;;;;;4.80;4.35;;;17.70;29.00;;;;;;5116175;28;20195;-60
2020/12/25 05:57:08;;;;;;;4.55;4.00;;;17.70;29.00;;;;;;5115737;28;20165;-60
2020/12/25 05:59:34;;;;;;;5.55;4.88;;;17.70;29.00;;;;;;5116199;28;20651;-60
2020/12/25 06:02:05;;;;;;;5.03;4.53;;;17.70;29.10;;;;;;5115970;28;20177;-60
2020/12/25 06:04:34;;;;;;;7.80;4.95;;;17.70;29.10;;;;;;5131730;27;20419;-60
2020/12/25 06:07:00;;;;;;;5.03;4.40;;;17.70;29.10;;;;;;5115466;28;20157;-60
2020/12/25 06:09:29;;;;;;;5.53;4.55;;;17.70;29.10;;;;;;5115963;28;20157;-60
2020/12/25 06:11:55;;;;;;;4.53;4.07;;;17.70;29.10;;;;;;5115650;28;20197;-61
2020/12/25 06:14:21;;;;;;;4.00;3.60;;;17.70;29.00;;;;;;5097619;28;20258;-60
2020/12/25 06:16:55;;;;;;;5.50;4.80;;;17.70;29.10;;;;;;5115803;28;20402;-60
2020/12/25 06:19:53;;;;;;;4.20;3.80;;;17.70;29.10;;;;;;5097305;28;20563;-59
2020/12/25 06:22:25;;;;;;;4.63;3.90;;;17.70;29.10;;;;;;5107306;28;20624;-60
2020/12/25 06:24:52;;;;;;;5.22;4.72;;;17.70;29.60;;;;;;5115597;28;20149;-60
2020/12/25 06:27:17;;;;;;;6.30;4.40;;;17.70;29.10;;;;;;5115606;28;20199;-60
2020/12/25 06:29:43;;;;;;;5.07;4.57;;;17.70;29.10;;;;;;5097415;28;20157;-60
2020/12/25 06:32:10;;;;;;;4.75;4.35;;;17.70;29.10;;;;;;5115064;28;20193;-60
2020/12/25 06:34:47;;;;;;;4.40;3.90;;;17.70;29.10;;;;;;5097235;28;20244;-59
2020/12/25 06:37:14;;;;;;;4.82;4.00;;;17.70;29.10;;;;;;5095865;28;20153;-59
2020/12/25 06:39:52;;;;;;;5.13;4.63;;;17.70;29.10;;;;;;5115340;28;20173;-60
2020/12/25 06:42:33;;;;;;;4.95;4.35;;;17.70;29.10;;;;;;5115149;28;20149;-60
2020/12/25 06:45:00;;;;;;;4.93;4.47;;;17.70;29.10;;;;;;5115094;28;20153;-60
2020/12/25 06:47:34;;;;;;;4.68;3.83;;;17.70;29.10;;;;;;5114930;28;20149;-59
2020/12/25 06:50:08;;;;;;;4.63;4.10;;;17.70;29.10;;;;;;5115004;28;20181;-59
2020/12/25 06:52:51;;;;;;;4.75;4.13;;;17.60;29.00;;;;;;5114448;28;20203;-60
2020/12/25 06:55:16;;;;;;;4.43;4.03;;;17.70;29.20;;;;;;5114941;28;20154;-60
2020/12/25 06:57:45;;;;;;;4.47;4.07;;;17.70;29.20;;;;;;5114833;28;20180;-60
2020/12/25 07:00:11;;;;;;;4.93;4.35;;;17.70;29.20;;;;;;5115038;28;20206;-60
2020/12/25 07:02:40;;;;;;;5.13;4.63;;;17.70;29.20;;;;;;5114667;28;20497;-60
2020/12/25 07:05:07;;;;;;;4.25;3.78;;;17.60;29.00;;;;;;5114855;28;20421;-60
2020/12/25 07:07:33;;;;;;;4.93;4.20;;;17.70;29.10;;;;;;5114607;28;20146;-60
2020/12/25 07:10:15;;;;;;;4.40;3.60;;;17.70;29.10;;;;;;5115032;28;20156;-60
2020/12/25 07:12:41;;;;;;;4.18;3.78;;;17.70;29.10;;;;;;5114632;28;20153;-60
2020/12/25 07:15:07;;;;;;;4.13;3.83;;;17.70;29.10;;;;;;5114580;28;20197;-60
2020/12/25 07:17:33;;;;;;;4.25;3.85;;;17.70;29.10;;;;;;5114345;28;20608;-60
2020/12/25 07:19:59;;;;;;;3.70;3.40;;;17.70;29.10;;;;;;5114612;28;20228;-60
2020/12/25 07:22:26;;;;;;;5.67;4.07;;;17.60;29.10;;;;;;5095873;28;20243;-59
2020/12/25 07:24:51;;;;;;;4.05;3.75;;;17.70;29.10;;;;;;5096301;28;20431;-60
2020/12/25 07:27:17;;;;;;;5.00;4.50;;;17.70;29.10;;;;;;5114293;28;20190;-59
2020/12/25 07:29:44;;;;;;;4.33;3.93;;;17.60;29.00;;;;;;5114515;28;20164;-60
2020/12/25 07:32:11;;;;;;;5.63;4.20;;;17.60;29.00;;;;;;5096006;28;20185;-60
2020/12/25 07:34:40;;;;;;;4.32;3.92;;;17.60;29.10;;;;;;5114563;28;20659;-60
2020/12/25 07:37:10;;;;;;;5.15;4.20;;;17.60;29.20;;;;;;5113745;28;20161;-60
2020/12/25 07:39:36;;;;;;;4.47;4.07;;;17.60;29.00;;;;;;5114604;28;20177;-60
2020/12/25 07:42:01;;;;;;;4.77;3.73;;;17.60;29.00;;;;;;5114271;28;20583;-60
2020/12/25 07:44:27;;;;;;;5.57;3.70;;;17.60;29.10;;;;;;5114222;28;20909;-60
2020/12/25 07:46:53;;;;;;;4.53;3.50;;;17.60;29.60;;;;;;5096016;28;20260;-60
2020/12/25 07:49:19;;;;;;;4.60;3.50;;;17.60;29.60;;;;;;5113866;28;20511;-60
2020/12/25 07:51:48;;;;;;;4.40;4.05;;;17.70;29.70;;;;;;5114070;28;20266;-60
2020/12/25 07:54:15;;;;;;;4.45;4.05;;;17.60;29.00;;;;;;5113455;28;20145;-60
2020/12/25 07:56:41;;;;;;;3.85;3.55;;;17.60;29.00;;;;;;5113950;28;20175;-61
2020/12/25 07:59:07;;;;;;;4.90;3.92;;;17.60;29.00;;;;;;5113992;28;20244;-60
2020/12/25 08:01:34;;;;;;;3.73;3.43;;;17.60;29.10;;;;;;5095504;28;20676;-59
2020/12/25 08:04:01;;;;;;;4.68;3.78;;;17.60;29.00;;;;;;5095730;28;20195;-60
2020/12/25 08:06:28;;;;;;;5.15;3.97;;;17.60;29.10;;;;;;5113939;28;20157;-59
2020/12/25 08:09:10;;;;;;;4.70;3.40;;;17.60;29.10;;;;;;5113443;28;20168;-61
2020/12/25 08:11:37;;;;;;;4.75;4.15;;;17.60;29.00;;;;;;5113734;28;20188;-60
2020/12/25 08:14:09;;;;;;;4.50;3.25;;;17.60;29.00;;;;;;5113823;28;20187;-60
2020/12/25 08:16:43;;;;;;;4.25;3.85;;;17.60;29.00;;;;;;5113878;28;20150;-60
2020/12/25 08:19:09;;;;;;;4.82;4.32;;;17.60;29.00;;;;;;5095341;28;20165;-60
2020/12/25 08:21:37;;;;;;;4.77;3.93;;;17.60;29.00;;;;;;5113793;28;20157;-60
2020/12/25 08:24:03;;;;;;;4.30;3.85;;;17.60;29.10;;;;;;5113360;28;20391;-60
2020/12/25 08:26:40;;;;;;;4.68;4.28;;;17.60;29.00;;;;;;5113765;28;20157;-60
2020/12/25 08:29:06;;;;;;;4.40;4.00;;;17.60;29.00;;;;;;5113495;28;20506;-60
2020/12/25 08:31:41;;;;;;;4.20;3.90;;;17.60;29.00;;;;;;5095533;28;20197;-60
2020/12/25 08:34:14;;;;;;;4.45;3.78;;;17.60;29.00;;;;;;5113783;28;20161;-60
2020/12/25 08:36:40;;;;;;;4.55;3.88;;;17.60;29.00;;;;;;5113574;28;20282;-60
2020/12/25 08:39:08;;;;;;;4.60;4.10;;;17.60;29.00;;;;;;5113186;28;20628;-60
2020/12/25 08:41:34;;;;;;;3.80;3.50;;;17.60;29.00;;;;;;5113676;28;20407;-60
2020/12/25 08:44:13;;;;;;;4.40;4.00;;;17.60;29.00;;;;;;5113386;28;20188;-61
2020/12/25 08:46:39;;;;;;;4.20;3.80;;;17.60;29.00;;;;;;5113639;28;20403;-61
2020/12/25 08:49:06;;;;;;;4.00;3.60;;;17.60;29.00;;;;;;5113505;28;20656;-61
2020/12/25 08:51:35;;;;;;;6.85;4.20;;;17.60;29.00;;;;;;5113554;28;20221;-61
2020/12/25 08:54:01;;;;;;;4.53;3.60;;;17.60;29.00;;;;;;5095060;28;20149;-60
2020/12/25 08:56:27;;;;;;;4.10;3.70;;;17.60;29.00;;;;;;5113394;28;20677;-60
2020/12/25 08:58:59;;;;;;;3.70;3.40;;;17.70;29.00;;;;;;5095217;28;20206;-61
2020/12/25 09:01:27;;;;;;;4.13;3.65;;;17.70;29.00;;;;;;5116113;28;20531;-60
2020/12/25 09:03:53;;;;;;;4.57;3.80;;;17.70;29.00;;;;;;5117088;28;20146;-61
2020/12/25 09:06:18;;;;;;;5.83;3.57;;;17.70;29.00;;;;;;5117079;28;20203;-61
2020/12/25 09:08:45;;;;;;;3.90;3.60;;;17.70;28.90;;;;;;5116606;28;20486;-61
2020/12/25 09:11:18;;;;;;;3.45;3.00;;;17.70;29.50;;;;;;5116951;28;20451;-61
2020/12/25 09:13:44;;;;;;;3.90;3.42;;;17.70;28.90;;;;;;5116879;28;20160;-60
2020/12/25 09:16:11;;;;;;;4.00;3.70;;;17.70;28.90;;;;;;5116992;28;20161;-61
2020/12/25 09:18:38;;;;;;;4.93;4.43;;;17.70;28.90;;;;;;5098567;28;20168;-61
2020/12/25 09:21:06;;;;;;;4.05;3.70;;;17.70;28.90;;;;;;5116850;28;20286;-61
2020/12/25 09:23:31;;;;;;;3.85;3.55;;;17.70;28.90;;;;;;5097917;28;20165;-61
2020/12/25 09:25:58;;;;;;;3.60;3.20;;;17.70;28.90;;;;;;5116870;28;20623;-60
2020/12/25 09:28:24;;;;;;;3.75;3.45;;;17.70;28.90;;;;;;5081309;28;20710;-61
2020/12/25 09:30:56;;;;;;;3.60;3.30;;;17.70;29.40;;;;;;5116482;28;20225;-60
2020/12/25 09:33:23;;;;;;;4.35;3.95;;;17.70;28.80;;;;;;5132760;27;20165;-60
2020/12/25 09:35:49;;;;;;;4.55;3.70;;;17.70;28.90;;;;;;5116486;28;20234;-60
2020/12/25 09:38:16;;;;;;;4.00;3.60;;;17.70;28.80;;;;;;5097784;28;20624;-60
2020/12/25 09:40:41;;;;;;;3.53;3.22;;;17.70;28.90;;;;;;5116503;28;20157;-61
2020/12/25 09:43:07;;;;;;;3.70;3.40;;;17.70;28.90;;;;;;5116220;28;20164;-60
2020/12/25 09:45:33;;;;;;;4.47;3.10;;;17.70;28.90;;;;;;5116392;28;20156;-61
2020/12/25 09:47:59;;;;;;;5.03;4.53;;;17.70;28.80;;;;;;5116211;28;20622;-61
2020/12/25 09:50:24;;;;;;;3.77;3.37;;;17.70;28.70;;;;;;5116085;28;20280;-60
2020/12/25 09:52:50;;;;;;;3.80;3.50;;;17.80;28.70;;;;;;5115400;28;20980;-62
2020/12/25 09:55:16;;;;;;;4.33;3.60;;;17.80;28.60;;;;;;5116234;28;20181;-61
2020/12/25 09:57:41;;;;;;;4.50;3.97;;;17.80;28.60;;;;;;5097704;28;20176;-61
2020/12/25 10:00:12;;;;;;;4.70;3.60;;;17.90;28.60;;;;;;5116120;28;20542;-61
2020/12/25 10:02:41;;;;;;;3.85;3.40;;;17.90;28.50;;;;;;5116019;28;20546;-61
2020/12/25 10:05:09;;;;;;;3.40;3.10;;;17.90;28.50;;;;;;5115931;28;20158;-61
2020/12/25 10:07:36;;;;;;;3.33;3.03;;;17.90;28.50;;;;;;5131408;27;20177;-61
2020/12/25 10:10:02;;;;;;;4.20;3.40;;;17.90;28.50;;;;;;5115936;28;20162;-61
2020/12/25 10:12:28;;;;;;;4.03;3.47;;;17.90;28.40;;;;;;5115559;28;20260;-61
2020/12/25 10:14:53;;;;;;;3.77;3.47;;;17.90;28.30;;;;;;5115692;28;20267;-61
2020/12/25 10:17:19;;;;;;;3.40;3.10;;;17.90;28.30;;;;;;5097496;28;20663;-61
2020/12/25 10:19:45;;;;;;;4.07;3.67;;;17.90;28.30;;;;;;5115728;28;20161;-61
2020/12/25 10:22:12;;;;;;;7.03;3.15;;;17.90;28.30;;;;;;5114999;28;20168;-61
2020/12/25 10:24:40;;;;;;;4.35;3.30;;;17.90;28.30;;;;;;5097304;28;20161;-61
2020/12/25 10:27:06;;;;;;;4.07;3.60;;;17.90;28.30;;;;;;5097175;28;20212;-61
2020/12/25 10:29:32;;;;;;;3.67;3.30;;;17.90;28.30;;;;;;5115477;28;20165;-61
2020/12/25 10:31:57;;;;;;;3.80;3.40;;;17.90;28.30;;;;;;5115347;28;20222;-61
2020/12/25 10:34:23;;;;;;;3.93;3.53;;;18.00;28.40;;;;;;5115428;28;20795;-61
2020/12/25 10:36:49;;;;;;;6.43;4.00;;;17.90;28.30;;;;;;5115397;28;20627;-60
2020/12/25 10:39:15;;;;;;;4.17;3.77;;;17.90;28.30;;;;;;5096340;28;20286;-60
2020/12/25 10:41:43;;;;;;;3.90;3.53;;;17.90;28.30;;;;;;5115204;28;20414;-60
2020/12/25 10:44:09;;;;;;;4.35;3.90;;;17.90;28.30;;;;;;5115073;28;20407;-60
2020/12/25 10:46:35;;;;;;;4.60;3.60;;;17.90;28.30;;;;;;5080071;28;20165;-60
2020/12/25 10:49:01;;;;;;;3.17;2.80;;;17.90;28.30;;;;;;5115083;28;20866;-61
2020/12/25 10:51:26;;;;;;;4.07;3.70;;;17.90;28.30;;;;;;5115083;28;20439;-61
2020/12/25 10:53:52;;;;;;;3.93;3.10;;;17.90;28.30;;;;;;5114222;28;20563;-61
2020/12/25 10:56:26;;;;;;;3.80;3.30;;;18.00;28.30;;;;;;5115104;28;20512;-61
2020/12/25 10:58:53;;;;;;;3.33;2.95;;;18.00;28.30;;;;;;5114759;28;20176;-61
2020/12/25 11:01:23;;;;;;;3.60;3.30;;;18.00;28.30;;;;;;5114913;28;20161;-60
2020/12/25 11:03:48;;;;;;;3.15;2.85;;;17.90;28.20;;;;;;5114836;28;20436;-60
2020/12/25 11:06:14;;;;;;;3.27;2.90;;;17.90;28.20;;;;;;5114839;28;20168;-60
2020/12/25 11:08:40;;;;;;;4.47;4.07;;;17.90;28.30;;;;;;5114248;28;20516;-60
2020/12/25 11:11:05;;;;;;;4.83;3.90;;;17.90;28.30;;;;;;5114674;28;20192;-60
2020/12/25 11:13:34;;;;;;;3.10;2.80;;;17.90;28.30;;;;;;5114571;28;20157;-60
2020/12/25 11:16:00;;;;;;;5.35;3.20;;;17.90;28.30;;;;;;5114663;28;20609;-60
2020/12/25 11:18:26;;;;;;;3.25;2.95;;;17.90;28.40;;;;;;5114438;28;20189;-61
2020/12/25 11:20:52;;;;;;;4.20;3.80;;;17.90;28.40;;;;;;5114629;28;20543;-61
2020/12/25 11:23:17;;;;;;;3.60;3.30;;;17.90;28.40;;;;;;5113326;28;20497;-60
2020/12/25 11:25:43;;;;;;;4.07;3.27;;;17.90;28.40;;;;;;5096172;28;20619;-60
2020/12/25 11:28:12;;;;;;;4.10;3.73;;;17.90;28.40;;;;;;5096212;28;20557;-60
2020/12/25 11:30:40;;;;;;;4.10;3.70;;;17.90;28.40;;;;;;5114307;28;20272;-61
2020/12/25 11:33:06;;;;;;;3.80;3.42;;;17.90;28.40;;;;;;5114321;28;20161;-61
2020/12/25 11:35:32;;;;;;;3.93;3.53;;;17.90;28.40;;;;;;5114285;28;20152;-61
2020/12/25 11:37:58;;;;;;;3.97;3.50;;;17.90;28.40;;;;;;5095555;28;20168;-60
2020/12/25 11:40:24;;;;;;;3.92;3.63;;;17.90;28.30;;;;;;5095964;28;20632;-60
2020/12/25 11:42:50;;;;;;;4.30;3.90;;;17.90;28.30;;;;;;5114076;28;20184;-60
2020/12/25 11:45:15;;;;;;;3.43;3.13;;;17.90;28.30;;;;;;5114086;28;20248;-60
2020/12/25 11:47:41;;;;;;;3.43;3.23;;;17.90;28.30;;;;;;5114266;28;20289;-60
2020/12/25 11:50:06;;;;;;;4.03;3.60;;;17.90;28.30;;;;;;5095971;28;20549;-60
2020/12/25 11:52:32;;;;;;;4.77;4.27;;;17.90;28.30;;;;;;5095034;28;20673;-60
2020/12/25 11:54:58;;;;;;;3.90;3.37;;;17.90;28.30;;;;;;5114252;28;20662;-60
2020/12/25 11:57:27;;;;;;;3.57;3.27;;;17.90;28.30;;;;;;5113729;28;20205;-60
2020/12/25 11:59:53;;;;;;;3.15;2.85;;;17.90;28.30;;;;;;5114018;28;20161;-60
2020/12/25 12:02:18;;;;;;;3.20;2.80;;;18.00;28.40;;;;;;5113845;28;20536;-60
2020/12/25 12:04:44;;;;;;;3.30;3.00;;;17.90;28.30;;;;;;5114155;28;20167;-60
2020/12/25 12:07:09;;;;;;;3.60;3.00;;;18.00;28.30;;;;;;5113316;28;20157;-61
2020/12/25 12:09:35;;;;;;;4.10;3.40;;;17.90;28.30;;;;;;5095743;28;20230;-60
2020/12/25 12:12:00;;;;;;;3.33;3.03;;;18.00;28.40;;;;;;5113662;28;20250;-60
2020/12/25 12:14:26;;;;;;;3.97;3.57;;;17.90;28.30;;;;;;5095796;28;20199;-60
2020/12/25 12:16:52;;;;;;;3.63;3.33;;;17.90;28.90;;;;;;5114034;28;20176;-60
2020/12/25 12:19:18;;;;;;;3.45;3.15;;;17.90;28.30;;;;;;5113934;28;20146;-60
2020/12/25 12:21:44;;;;;;;3.37;3.07;;;17.90;28.40;;;;;;5113658;28;20164;-60
2020/12/25 12:24:09;;;;;;;4.20;3.80;;;17.90;28.90;;;;;;5113270;28;20311;-61
2020/12/25 12:26:35;;;;;;;3.50;3.20;;;17.90;28.40;;;;;;5095745;28;20617;-61
2020/12/25 12:29:01;;;;;;;4.40;3.50;;;17.90;28.50;;;;;;5095766;28;20176;-61
2020/12/25 12:31:27;;;;;;;3.07;2.87;;;17.90;28.50;;;;;;5114000;28;20446;-61
2020/12/25 12:33:52;;;;;;;4.20;2.93;;;17.90;28.50;;;;;;5113528;28;20235;-61
2020/12/25 12:36:18;;;;;;;4.00;3.40;;;17.90;28.50;;;;;;5116162;28;20244;-60
2020/12/25 12:38:43;;;;;;;5.70;3.30;;;17.90;28.50;;;;;;5099084;28;20240;-61
2020/12/25 12:41:09;;;;;;;4.10;3.60;;;17.90;29.10;;;;;;5117584;28;20157;-61
2020/12/25 12:43:35;;;;;;;3.70;2.67;;;17.90;28.50;;;;;;5117496;28;20157;-60
2020/12/25 12:46:00;;;;;;;5.57;3.33;;;17.90;28.60;;;;;;5117635;28;20599;-60
2020/12/25 12:48:26;;;;;;;3.93;3.50;;;17.80;28.50;;;;;;5117376;28;20215;-61